Time;durP1;ratioP1;P1;durP2;ratioP2;P2;SDS_P1;SDS_P2;PMS_P1;PMS_P2;Temp;Humidity;BMP_temperature;BMP_pressure;BME280_temperature;BME280_humidity;BME280_pressure;Samples;Min_cycle;Max_cycle;Signal;HPM_P1;HPM_P2
2023/02/28 00:00:45;;;;;;;0.47;0.47;;;-1.80;91.70;;;;;;5093065;28;20681;-71
2023/02/28 00:03:11;;;;;;;0.60;0.60;;;-2.00;91.80;;;;;;5093618;28;20256;-70
2023/02/28 00:05:37;;;;;;;0.40;0.40;;;-1.80;91.70;;;;;;5093567;28;20207;-70
2023/02/28 00:08:02;;;;;;;0.50;0.50;;;-1.70;91.60;;;;;;5093121;28;20232;-70
2023/02/28 00:10:30;;;;;;;0.30;0.30;;;-1.60;91.40;;;;;;5093074;28;20180;-70
2023/02/28 00:13:00;;;;;;;2.47;2.38;;;-1.70;91.70;;;;;;5093264;28;20486;-71
2023/02/28 00:15:26;;;;;;;0.40;0.40;;;-1.50;91.40;;;;;;5093331;28;20173;-70
2023/02/28 00:17:52;;;;;;;0.75;0.75;;;-1.40;91.20;;;;;;5093066;28;20242;-70
2023/02/28 00:20:18;;;;;;;0.40;0.40;;;-1.60;91.00;;;;;;5092888;28;20177;-70
2023/02/28 00:22:47;;;;;;;1.48;1.35;;;-1.50;91.20;;;;;;5093189;28;20534;-70
2023/02/28 00:25:16;;;;;;;0.40;0.40;;;-1.60;91.30;;;;;;5093136;28;20227;-70
2023/02/28 00:27:42;;;;;;;0.40;0.40;;;-1.50;91.80;;;;;;5092954;28;20192;-70
2023/02/28 00:30:12;;;;;;;0.50;0.50;;;-1.60;91.80;;;;;;5092929;28;20169;-70
2023/02/28 00:32:38;;;;;;;0.50;0.50;;;-1.80;92.10;;;;;;5093060;28;20201;-70
2023/02/28 00:35:04;;;;;;;0.87;0.87;;;-1.50;92.50;;;;;;5093326;28;20204;-70
2023/02/28 00:37:30;;;;;;;0.40;0.40;;;-1.30;92.40;;;;;;5092905;28;20395;-70
2023/02/28 00:39:56;;;;;;;0.40;0.40;;;-1.30;92.00;;;;;;5091443;28;20169;-70
2023/02/28 00:42:22;;;;;;;1.00;0.93;;;-1.30;91.60;;;;;;5093051;28;20395;-70
2023/02/28 00:44:47;;;;;;;0.30;0.30;;;-1.40;91.30;;;;;;5092812;28;20402;-71
2023/02/28 00:47:14;;;;;;;0.40;0.40;;;-1.80;91.70;;;;;;5092727;28;20511;-70
2023/02/28 00:49:39;;;;;;;0.63;0.63;;;-1.80;92.10;;;;;;5092566;28;20645;-70
2023/02/28 00:52:05;;;;;;;0.40;0.40;;;-1.60;92.40;;;;;;5092944;28;20248;-70
2023/02/28 00:54:30;;;;;;;0.40;0.40;;;-1.60;92.40;;;;;;5092881;28;20644;-70
2023/02/28 00:56:56;;;;;;;0.40;0.40;;;-1.50;92.00;;;;;;5095981;28;20165;-71
2023/02/28 00:59:22;;;;;;;0.40;0.40;;;-1.60;92.10;;;;;;5096192;28;20193;-70
2023/02/28 01:01:48;;;;;;;0.73;0.60;;;-1.50;92.30;;;;;;5096456;28;20179;-70
2023/02/28 01:04:14;;;;;;;0.30;0.30;;;-1.30;92.00;;;;;;5096405;28;20171;-71
2023/02/28 01:06:40;;;;;;;0.73;0.73;;;-1.20;91.60;;;;;;5096558;28;20820;-70
2023/02/28 01:09:07;;;;;;;0.93;0.93;;;-1.20;91.60;;;;;;5096018;28;20219;-70
2023/02/28 01:11:33;;;;;;;0.50;0.50;;;-1.30;91.60;;;;;;5096576;28;20184;-70
2023/02/28 01:13:59;;;;;;;0.40;0.40;;;-1.40;92.10;;;;;;5096144;28;20508;-70
2023/02/28 01:16:26;;;;;;;1.35;1.35;;;-1.30;91.70;;;;;;5096112;28;20257;-70
2023/02/28 01:18:52;;;;;;;0.40;0.40;;;-1.10;91.80;;;;;;5095976;28;20193;-70
2023/02/28 01:21:19;;;;;;;0.30;0.30;;;-1.30;91.60;;;;;;5096141;28;20257;-70
2023/02/28 01:23:45;;;;;;;1.23;1.23;;;-1.40;92.20;;;;;;5096147;28;20686;-70
2023/02/28 01:26:22;;;;;;;0.50;0.50;;;-1.40;91.80;;;;;;5095892;28;20200;-70
2023/02/28 01:28:49;;;;;;;0.40;0.40;;;-1.40;91.80;;;;;;5095725;28;20274;-70
2023/02/28 01:31:15;;;;;;;0.40;0.40;;;-1.30;91.70;;;;;;5095908;28;20173;-70
2023/02/28 01:33:41;;;;;;;1.25;1.23;;;-1.60;91.60;;;;;;5095905;28;20157;-70
2023/02/28 01:36:19;;;;;;;0.80;0.80;;;-1.70;92.00;;;;;;5095810;28;20301;-70
2023/02/28 01:38:45;;;;;;;0.32;0.32;;;-1.50;92.30;;;;;;5094188;28;20568;-70
2023/02/28 01:41:16;;;;;;;0.50;0.50;;;-1.30;92.00;;;;;;5095608;28;20183;-70
2023/02/28 01:43:42;;;;;;;0.70;0.70;;;-1.30;92.10;;;;;;5095614;28;20169;-70
2023/02/28 01:46:07;;;;;;;0.50;0.50;;;-1.20;91.80;;;;;;5095482;28;20271;-70
2023/02/28 01:48:36;;;;;;;0.40;0.40;;;-1.20;91.70;;;;;;5095249;28;20204;-70
2023/02/28 01:51:10;;;;;;;0.73;0.73;;;-1.40;91.90;;;;;;5095249;28;20172;-70
2023/02/28 01:53:42;;;;;;;0.45;0.45;;;-1.50;92.40;;;;;;5095475;28;20218;-70
2023/02/28 01:56:11;;;;;;;0.45;0.45;;;-1.30;92.30;;;;;;5095580;28;20592;-70
2023/02/28 01:58:37;;;;;;;0.40;0.40;;;-1.30;91.90;;;;;;5095414;28;20196;-70
2023/02/28 02:01:04;;;;;;;0.30;0.30;;;-1.30;91.80;;;;;;5093940;28;20660;-70
2023/02/28 02:03:31;;;;;;;0.30;0.30;;;-1.20;92.10;;;;;;5095125;28;20181;-70
2023/02/28 02:05:57;;;;;;;0.30;0.30;;;-1.20;92.20;;;;;;5093998;28;20204;-70
2023/02/28 02:08:29;;;;;;;0.70;0.70;;;-1.10;92.40;;;;;;5094960;28;20209;-70
2023/02/28 02:10:58;;;;;;;0.30;0.30;;;-1.10;92.10;;;;;;5095034;28;20207;-70
2023/02/28 02:13:55;;;;;;;0.30;0.30;;;-1.10;91.90;;;;;;5095161;28;20169;-70
2023/02/28 02:16:55;;;;;;;0.40;0.40;;;-1.20;92.30;;;;;;5095076;28;20222;-70
2023/02/28 02:19:51;;;;;;;1.15;1.08;;;-1.40;92.20;;;;;;5091477;28;20212;-70
2023/02/28 02:22:57;;;;;;;0.40;0.40;;;-1.70;92.90;;;;;;5095048;28;20572;-70
2023/02/28 02:25:44;;;;;;;0.30;0.30;;;-1.60;93.20;;;;;;5094900;28;20176;-70
2023/02/28 02:28:25;;;;;;;0.95;0.95;;;-1.50;93.20;;;;;;5094818;28;20212;-70
2023/02/28 02:31:19;;;;;;;0.38;0.38;;;-1.30;92.70;;;;;;5094694;28;20164;-70
2023/02/28 02:34:20;;;;;;;0.40;0.40;;;-1.30;92.60;;;;;;5081879;28;20212;-70
2023/02/28 02:36:55;;;;;;;0.93;0.60;;;-1.30;92.80;;;;;;5093273;28;20164;-70
2023/02/28 02:39:40;;;;;;;0.40;0.40;;;-1.30;93.10;;;;;;5093345;28;20191;-70
2023/02/28 02:42:14;;;;;;;0.73;0.73;;;-1.30;93.10;;;;;;5094390;28;20262;-70
2023/02/28 02:44:46;;;;;;;0.40;0.40;;;-1.40;92.90;;;;;;5094619;28;20172;-70
2023/02/28 02:47:17;;;;;;;0.40;0.40;;;-1.40;93.10;;;;;;5094456;28;20178;-70
2023/02/28 02:49:48;;;;;;;1.58;1.48;;;-1.30;93.00;;;;;;5092754;28;20265;-70
2023/02/28 02:52:17;;;;;;;1.80;1.70;;;-1.30;92.90;;;;;;5094125;28;20168;-70
2023/02/28 02:54:46;;;;;;;0.30;0.30;;;-1.20;93.10;;;;;;5094306;28;20165;-70
2023/02/28 02:57:25;;;;;;;0.38;0.38;;;-1.10;93.20;;;;;;5094321;28;20168;-70
2023/02/28 02:59:53;;;;;;;0.30;0.30;;;-1.10;93.00;;;;;;5094101;28;20245;-70
2023/02/28 03:02:21;;;;;;;0.50;0.50;;;-1.00;93.00;;;;;;5092839;28;20685;-70
2023/02/28 03:05:00;;;;;;;0.60;0.60;;;-0.90;92.80;;;;;;5094095;28;20201;-70
2023/02/28 03:07:27;;;;;;;1.10;1.10;;;-0.90;92.70;;;;;;5094061;28;20171;-70
2023/02/28 03:09:54;;;;;;;0.40;0.40;;;-0.80;92.70;;;;;;5093714;28;20645;-70
2023/02/28 03:12:22;;;;;;;0.30;0.30;;;-0.70;92.40;;;;;;5094309;28;20173;-70
2023/02/28 03:15:17;;;;;;;0.40;0.40;;;-0.80;92.20;;;;;;5093794;28;20717;-70
2023/02/28 03:18:00;;;;;;;0.55;0.55;;;-0.80;92.50;;;;;;5093639;28;20256;-70
2023/02/28 03:21:03;;;;;;;0.40;0.40;;;-0.70;92.30;;;;;;5093502;28;20161;-70
2023/02/28 03:23:43;;;;;;;0.43;0.43;;;-0.80;92.10;;;;;;5093822;28;20169;-70
2023/02/28 03:26:20;;;;;;;0.82;0.82;;;-0.80;92.50;;;;;;5093916;28;20640;-70
2023/02/28 03:29:10;;;;;;;0.55;0.55;;;-0.70;92.60;;;;;;5093533;28;20209;-70
2023/02/28 03:31:41;;;;;;;0.30;0.30;;;-0.70;92.60;;;;;;5093795;28;20211;-70
2023/02/28 03:34:25;;;;;;;0.30;0.30;;;-1.10;92.30;;;;;;5093700;28;20508;-70
2023/02/28 03:36:55;;;;;;;0.50;0.50;;;-1.20;93.00;;;;;;5094063;28;20636;-70
2023/02/28 03:39:26;;;;;;;0.50;0.50;;;-1.10;93.60;;;;;;5093079;28;20200;-70
2023/02/28 03:42:00;;;;;;;0.30;0.30;;;-1.00;93.80;;;;;;5093595;28;20637;-70
2023/02/28 03:44:33;;;;;;;0.30;0.30;;;-0.90;93.00;;;;;;5093675;28;20180;-70
2023/02/28 03:47:17;;;;;;;0.50;0.50;;;-1.10;92.90;;;;;;5093557;28;20168;-71
2023/02/28 03:49:54;;;;;;;0.55;0.55;;;-1.10;93.20;;;;;;5093139;28;20295;-70
2023/02/28 03:52:25;;;;;;;0.40;0.40;;;-1.00;93.20;;;;;;5093447;28;20173;-70
2023/02/28 03:54:55;;;;;;;0.50;0.50;;;-1.00;93.20;;;;;;5093427;28;20164;-70
2023/02/28 03:57:31;;;;;;;0.60;0.60;;;-1.10;93.40;;;;;;5093446;28;20162;-70
2023/02/28 04:00:04;;;;;;;0.40;0.40;;;-1.10;93.50;;;;;;5093137;28;20161;-71
2023/02/28 04:02:30;;;;;;;0.40;0.40;;;-1.00;93.50;;;;;;5092035;28;20226;-70
2023/02/28 04:04:55;;;;;;;0.40;0.40;;;-1.20;93.40;;;;;;5093597;28;20165;-70
2023/02/28 04:07:21;;;;;;;0.30;0.30;;;-1.10;93.70;;;;;;5093492;28;20434;-70
2023/02/28 04:09:46;;;;;;;0.47;0.47;;;-1.00;93.90;;;;;;5092902;28;20610;-70
2023/02/28 04:12:12;;;;;;;0.77;0.77;;;-0.90;93.90;;;;;;5093385;28;20170;-70
2023/02/28 04:14:38;;;;;;;0.73;0.73;;;-0.80;93.50;;;;;;5093313;28;20169;-70
2023/02/28 04:17:03;;;;;;;0.40;0.40;;;-0.60;93.10;;;;;;5093143;28;20170;-70
2023/02/28 04:19:29;;;;;;;0.30;0.30;;;-0.60;92.60;;;;;;5092883;28;20229;-70
2023/02/28 04:21:55;;;;;;;0.60;0.60;;;-0.60;92.50;;;;;;5093185;28;20570;-70
2023/02/28 04:24:23;;;;;;;0.60;0.60;;;-0.60;92.20;;;;;;5093214;28;20173;-70
2023/02/28 04:26:52;;;;;;;0.55;0.55;;;-0.90;92.30;;;;;;5093203;28;20425;-70
2023/02/28 04:29:21;;;;;;;3.42;0.80;;;-1.30;93.00;;;;;;5092819;28;20209;-70
2023/02/28 04:31:47;;;;;;;0.40;0.40;;;-1.30;93.50;;;;;;5096221;28;20165;-70
2023/02/28 04:34:12;;;;;;;0.70;0.70;;;-1.10;94.00;;;;;;5096935;28;20634;-70
2023/02/28 04:36:38;;;;;;;2.83;1.80;;;-1.00;94.10;;;;;;5097131;28;20195;-70
2023/02/28 04:39:04;;;;;;;1.53;1.53;;;-1.00;93.80;;;;;;5096759;28;20195;-70
2023/02/28 04:41:30;;;;;;;0.40;0.40;;;-1.00;93.40;;;;;;5096937;28;20641;-70
2023/02/28 04:43:56;;;;;;;0.60;0.60;;;-1.00;93.40;;;;;;5096854;28;20179;-70
2023/02/28 04:46:22;;;;;;;0.40;0.40;;;-1.10;93.00;;;;;;5096914;28;20486;-70
2023/02/28 04:48:47;;;;;;;0.65;0.65;;;-1.40;93.30;;;;;;5096287;28;20217;-70
2023/02/28 04:51:15;;;;;;;0.60;0.60;;;-1.50;94.00;;;;;;5096819;28;20253;-70
2023/02/28 04:53:42;;;;;;;0.30;0.30;;;-1.50;94.40;;;;;;5096589;28;20848;-70
2023/02/28 04:56:10;;;;;;;0.75;0.75;;;-1.30;94.90;;;;;;5096655;28;20216;-70
2023/02/28 04:58:35;;;;;;;0.40;0.40;;;-1.10;93.90;;;;;;5096409;28;20228;-70
2023/02/28 05:01:03;;;;;;;1.07;1.07;;;-1.20;93.90;;;;;;5096306;28;20195;-70
2023/02/28 05:03:29;;;;;;;1.10;0.95;;;-1.40;93.90;;;;;;5096568;28;20173;-70
2023/02/28 05:05:55;;;;;;;0.40;0.40;;;-1.40;93.70;;;;;;5096440;28;20173;-70
2023/02/28 05:08:20;;;;;;;0.60;0.60;;;-1.40;94.00;;;;;;5096193;28;20660;-70
2023/02/28 05:10:46;;;;;;;0.40;0.40;;;-1.30;94.40;;;;;;5096055;28;20626;-70
2023/02/28 05:13:12;;;;;;;1.17;1.17;;;-1.20;94.10;;;;;;5096373;28;20177;-70
2023/02/28 05:15:38;;;;;;;2.55;2.45;;;-1.00;94.30;;;;;;5096392;28;20638;-70
2023/02/28 05:18:03;;;;;;;3.57;1.07;;;-1.10;94.20;;;;;;5096219;28;20212;-70
2023/02/28 05:20:29;;;;;;;0.40;0.40;;;-1.20;94.60;;;;;;5095995;28;20440;-70
2023/02/28 05:22:56;;;;;;;0.40;0.40;;;-1.20;94.70;;;;;;5096164;28;20556;-70
2023/02/28 05:25:22;;;;;;;0.93;0.93;;;-1.30;95.10;;;;;;5096075;28;20180;-70
2023/02/28 05:27:48;;;;;;;0.40;0.40;;;-1.20;95.10;;;;;;5095726;28;20200;-70
2023/02/28 05:30:15;;;;;;;0.50;0.50;;;-1.40;94.00;;;;;;5095808;28;20895;-70
2023/02/28 05:32:42;;;;;;;0.30;0.30;;;-1.70;95.10;;;;;;5095875;28;20633;-70
2023/02/28 05:35:11;;;;;;;0.40;0.40;;;-1.50;95.60;;;;;;5095897;28;20161;-70
2023/02/28 05:37:38;;;;;;;0.50;0.50;;;-1.30;95.40;;;;;;5095829;28;20169;-70
2023/02/28 05:40:11;;;;;;;0.93;0.93;;;-1.10;95.10;;;;;;5095456;28;20169;-70
2023/02/28 05:42:37;;;;;;;0.82;0.50;;;-1.20;93.90;;;;;;5095477;28;20180;-70
2023/02/28 05:45:04;;;;;;;0.85;0.85;;;-1.40;93.70;;;;;;5095572;28;20188;-70
2023/02/28 05:47:30;;;;;;;0.68;0.68;;;-1.30;93.80;;;;;;5095284;28;20208;-70
2023/02/28 05:49:56;;;;;;;0.90;0.70;;;-1.20;93.70;;;;;;5095295;28;20273;-69
2023/02/28 05:52:21;;;;;;;0.73;0.73;;;-1.30;93.60;;;;;;5095713;28;20757;-70
2023/02/28 05:54:47;;;;;;;2.10;2.00;;;-1.20;93.90;;;;;;5095570;28;20723;-70
2023/02/28 05:57:13;;;;;;;0.70;0.70;;;-1.20;93.50;;;;;;5095536;28;20161;-70
2023/02/28 05:59:39;;;;;;;0.50;0.50;;;-1.30;93.20;;;;;;5095111;28;20231;-70
2023/02/28 06:02:06;;;;;;;1.08;0.90;;;-1.40;93.80;;;;;;5095444;28;20403;-70
2023/02/28 06:04:31;;;;;;;0.40;0.40;;;-1.40;94.00;;;;;;5095103;28;20173;-70
2023/02/28 06:06:57;;;;;;;0.93;0.93;;;-1.50;93.80;;;;;;5095352;28;20165;-70
2023/02/28 06:09:23;;;;;;;0.53;0.53;;;-1.50;94.10;;;;;;5094841;28;20232;-70
2023/02/28 06:11:48;;;;;;;0.77;0.77;;;-1.50;94.20;;;;;;5095056;28;20190;-70
2023/02/28 06:14:16;;;;;;;0.50;0.50;;;-1.50;94.10;;;;;;5095051;28;20511;-70
2023/02/28 06:16:42;;;;;;;0.73;0.73;;;-1.40;94.30;;;;;;5095285;28;20219;-70
2023/02/28 06:19:09;;;;;;;1.73;1.63;;;-1.40;94.00;;;;;;5094559;28;20208;-70
2023/02/28 06:21:35;;;;;;;0.40;0.40;;;-1.40;93.70;;;;;;5095009;28;20216;-70
2023/02/28 06:24:02;;;;;;;0.40;0.40;;;-1.40;93.60;;;;;;5094742;28;20200;-70
2023/02/28 06:26:28;;;;;;;0.30;0.30;;;-1.30;93.80;;;;;;5094815;28;20514;-70
2023/02/28 06:28:54;;;;;;;2.73;2.63;;;-1.30;93.60;;;;;;5094625;28;20329;-70
2023/02/28 06:31:20;;;;;;;0.50;0.50;;;-1.20;93.70;;;;;;5094880;28;20161;-70
2023/02/28 06:33:46;;;;;;;1.20;0.80;;;-1.20;93.60;;;;;;5094525;28;20254;-70
2023/02/28 06:36:14;;;;;;;2.53;2.30;;;-1.00;93.70;;;;;;5094764;28;20172;-70
2023/02/28 06:38:40;;;;;;;0.30;0.30;;;-1.00;93.40;;;;;;5094429;28;20238;-70
2023/02/28 06:41:06;;;;;;;0.50;0.50;;;-1.00;93.10;;;;;;5094520;28;20187;-70
2023/02/28 06:43:35;;;;;;;1.88;1.77;;;-1.00;93.10;;;;;;5094483;28;20255;-70
2023/02/28 06:46:03;;;;;;;0.50;0.50;;;-1.10;93.30;;;;;;5094380;28;20257;-70
2023/02/28 06:48:28;;;;;;;0.50;0.50;;;-1.30;93.30;;;;;;5094017;28;20219;-70
2023/02/28 06:51:07;;;;;;;0.40;0.40;;;-1.30;93.60;;;;;;5094039;28;20165;-70
2023/02/28 06:53:33;;;;;;;0.40;0.40;;;-1.20;93.70;;;;;;5093725;28;20160;-70
2023/02/28 06:55:59;;;;;;;1.33;1.33;;;-1.10;93.40;;;;;;5094240;28;20577;-70
2023/02/28 06:58:25;;;;;;;0.40;0.40;;;-1.20;93.10;;;;;;5094053;28;20965;-70
2023/02/28 07:00:52;;;;;;;0.40;0.40;;;-1.20;93.40;;;;;;5094154;28;20278;-70
2023/02/28 07:03:18;;;;;;;4.78;1.15;;;-1.30;93.50;;;;;;5094131;28;20407;-70
2023/02/28 07:05:44;;;;;;;0.40;0.40;;;-1.30;93.80;;;;;;5094169;28;20519;-70
2023/02/28 07:08:10;;;;;;;1.75;0.95;;;-1.30;93.80;;;;;;5093803;28;20684;-70
2023/02/28 07:10:38;;;;;;;2.30;2.10;;;-1.30;93.80;;;;;;5093805;28;20169;-70
2023/02/28 07:13:05;;;;;;;0.50;0.50;;;-1.20;94.10;;;;;;5093963;28;20222;-70
2023/02/28 07:15:31;;;;;;;0.70;0.70;;;-1.10;93.70;;;;;;5093984;28;20169;-70
2023/02/28 07:17:57;;;;;;;0.40;0.40;;;-1.10;93.60;;;;;;5093861;28;20658;-70
2023/02/28 07:20:23;;;;;;;0.30;0.30;;;-1.20;93.90;;;;;;5093617;28;20165;-70
2023/02/28 07:22:56;;;;;;;0.65;0.40;;;-1.20;93.60;;;;;;5093766;28;20173;-70
2023/02/28 07:25:26;;;;;;;1.98;0.80;;;-1.40;93.80;;;;;;5093756;28;20168;-70
2023/02/28 07:27:52;;;;;;;2.25;2.25;;;-1.50;94.00;;;;;;5093586;28;20203;-70
2023/02/28 07:30:18;;;;;;;0.73;0.73;;;-1.40;94.20;;;;;;5093427;28;20306;-69
2023/02/28 07:32:43;;;;;;;0.30;0.30;;;-1.50;94.10;;;;;;5093737;28;20209;-70
2023/02/28 07:35:09;;;;;;;0.70;0.70;;;-1.50;94.50;;;;;;5093551;28;20172;-70
2023/02/28 07:37:38;;;;;;;1.00;0.60;;;-1.80;94.80;;;;;;5093685;28;20172;-70
2023/02/28 07:40:08;;;;;;;0.50;0.50;;;-1.70;95.50;;;;;;5093343;28;20195;-70
2023/02/28 07:42:34;;;;;;;1.02;1.02;;;-1.40;95.40;;;;;;5092467;28;20185;-70
2023/02/28 07:45:00;;;;;;;3.00;1.02;;;-1.30;95.00;;;;;;5093605;28;20536;-70
2023/02/28 07:47:26;;;;;;;0.60;0.60;;;-1.10;94.80;;;;;;5093520;28;20198;-70
2023/02/28 07:49:52;;;;;;;0.70;0.55;;;-1.10;94.20;;;;;;5093181;28;20813;-70
2023/02/28 07:52:18;;;;;;;0.60;0.60;;;-0.90;94.60;;;;;;5092097;28;20177;-70
2023/02/28 07:54:43;;;;;;;0.30;0.30;;;-0.80;94.10;;;;;;5093474;28;20226;-70
2023/02/28 07:57:09;;;;;;;0.97;0.97;;;-0.70;93.70;;;;;;5092243;28;20169;-70
2023/02/28 07:59:34;;;;;;;0.50;0.50;;;-0.60;93.30;;;;;;5091824;28;20193;-70
2023/02/28 08:02:00;;;;;;;0.40;0.40;;;-0.70;93.20;;;;;;5093483;28;20251;-70
2023/02/28 08:04:26;;;;;;;1.33;1.33;;;-0.90;93.10;;;;;;5094520;28;20166;-70
2023/02/28 08:06:52;;;;;;;0.60;0.60;;;-1.00;93.30;;;;;;5097495;28;20177;-70
2023/02/28 08:09:19;;;;;;;0.77;0.77;;;-1.00;93.60;;;;;;5097125;28;20564;-70
2023/02/28 08:11:44;;;;;;;2.05;1.95;;;-1.20;94.20;;;;;;5097437;28;20170;-70
2023/02/28 08:14:10;;;;;;;0.30;0.30;;;-1.20;94.70;;;;;;5097499;28;20161;-70
2023/02/28 08:16:36;;;;;;;1.33;1.33;;;-1.00;93.80;;;;;;5097214;28;20161;-70
2023/02/28 08:19:02;;;;;;;0.30;0.30;;;-0.90;93.40;;;;;;5097046;28;20273;-70
2023/02/28 08:21:28;;;;;;;0.90;0.70;;;-0.80;93.10;;;;;;5097223;28;20204;-70
2023/02/28 08:23:53;;;;;;;1.03;1.03;;;-0.80;93.30;;;;;;5097279;28;20242;-70
2023/02/28 08:26:20;;;;;;;0.80;0.80;;;-0.70;93.60;;;;;;5097100;28;20252;-70
2023/02/28 08:28:45;;;;;;;0.30;0.30;;;-0.70;93.70;;;;;;5096694;28;20242;-70
2023/02/28 08:31:14;;;;;;;2.10;2.00;;;-0.50;93.70;;;;;;5096955;28;20174;-70
2023/02/28 08:33:41;;;;;;;0.30;0.30;;;-0.30;93.30;;;;;;5095944;28;20442;-70
2023/02/28 08:36:08;;;;;;;0.40;0.40;;;-0.30;92.70;;;;;;5096963;28;20165;-70
2023/02/28 08:38:35;;;;;;;1.60;1.52;;;-0.20;92.40;;;;;;5096894;28;20198;-70
2023/02/28 08:41:03;;;;;;;0.50;0.50;;;-0.20;92.20;;;;;;5096813;28;20256;-71
2023/02/28 08:43:29;;;;;;;0.30;0.30;;;-0.20;92.40;;;;;;5096887;28;20208;-70
2023/02/28 08:45:58;;;;;;;2.10;1.10;;;0.00;92.60;;;;;;5096331;28;20173;-74
2023/02/28 08:48:25;;;;;;;0.40;0.40;;;0.10;92.20;;;;;;5096350;28;20242;-72
2023/02/28 08:50:57;;;;;;;0.35;0.35;;;0.20;91.60;;;;;;5096909;28;20170;-74
2023/02/28 08:53:22;;;;;;;0.30;0.30;;;0.10;91.60;;;;;;5096482;28;20169;-73
2023/02/28 08:55:59;;;;;;;0.40;0.40;;;0.10;91.70;;;;;;5096917;28;20298;-69
2023/02/28 08:58:25;;;;;;;0.70;0.70;;;-0.10;91.90;;;;;;5096719;28;20226;-70
2023/02/28 09:00:51;;;;;;;0.60;0.60;;;-0.10;91.70;;;;;;5096486;28;20182;-73
2023/02/28 09:03:17;;;;;;;0.50;0.50;;;-0.40;91.90;;;;;;5096838;28;20178;-73
2023/02/28 09:05:56;;;;;;;0.40;0.40;;;-0.30;92.60;;;;;;5096786;28;20431;-73
2023/02/28 09:08:22;;;;;;;1.15;1.13;;;-0.20;92.40;;;;;;5096576;28;20284;-73
2023/02/28 09:10:47;;;;;;;0.47;0.47;;;-0.20;92.00;;;;;;5096138;28;20253;-72
2023/02/28 09:13:13;;;;;;;0.60;0.60;;;0.00;92.10;;;;;;5096139;28;20171;-71
2023/02/28 09:15:39;;;;;;;4.07;1.67;;;-0.20;91.70;;;;;;5095806;28;20412;-71
2023/02/28 09:18:05;;;;;;;0.40;0.40;;;-0.80;92.30;;;;;;5095828;28;20680;-71
2023/02/28 09:20:30;;;;;;;0.73;0.73;;;-0.80;93.40;;;;;;5095819;28;20421;-74
2023/02/28 09:22:56;;;;;;;0.60;0.60;;;-0.50;93.50;;;;;;5096547;28;20176;-72
2023/02/28 09:25:22;;;;;;;1.70;1.10;;;-0.30;93.00;;;;;;5095873;28;20180;-74
2023/02/28 09:27:48;;;;;;;1.20;1.13;;;0.00;92.70;;;;;;5095865;28;20457;-74
2023/02/28 09:30:14;;;;;;;0.38;0.38;;;0.00;92.20;;;;;;5096015;28;20165;-74
2023/02/28 09:32:39;;;;;;;0.60;0.60;;;0.00;92.10;;;;;;5096259;28;20227;-74
2023/02/28 09:35:06;;;;;;;0.40;0.40;;;0.10;91.80;;;;;;5094268;28;20412;-73
2023/02/28 09:37:31;;;;;;;0.40;0.40;;;0.20;91.40;;;;;;5096113;28;20173;-73
2023/02/28 09:39:57;;;;;;;0.40;0.40;;;0.30;90.90;;;;;;5095603;28;20177;-73
2023/02/28 09:42:32;;;;;;;0.40;0.40;;;0.40;91.20;;;;;;5095848;28;20412;-74
2023/02/28 09:45:01;;;;;;;0.60;0.60;;;0.10;90.90;;;;;;5096081;28;20404;-75
2023/02/28 09:47:36;;;;;;;2.15;0.80;;;-0.10;91.30;;;;;;5095727;28;20214;-74
2023/02/28 09:50:32;;;;;;;0.30;0.30;;;0.00;91.60;;;;;;5095560;28;20561;-73
2023/02/28 09:53:01;;;;;;;0.50;0.50;;;0.30;91.40;;;;;;5089573;28;20696;-73
2023/02/28 09:55:44;;;;;;;0.30;0.30;;;0.30;90.90;;;;;;5095777;28;20174;-74
2023/02/28 09:58:33;;;;;;;0.40;0.40;;;0.40;90.90;;;;;;5095184;28;20288;-73
2023/02/28 10:01:21;;;;;;;0.60;0.60;;;0.70;90.90;;;;;;5095288;28;20173;-73
2023/02/28 10:03:55;;;;;;;0.80;0.80;;;1.00;91.00;;;;;;5095616;28;20173;-74
2023/02/28 10:06:28;;;;;;;0.88;0.88;;;1.40;90.00;;;;;;5095850;28;20496;-73
2023/02/28 10:09:15;;;;;;;0.30;0.30;;;1.50;89.30;;;;;;5095118;28;20194;-73
2023/02/28 10:11:43;;;;;;;0.93;0.93;;;1.50;89.50;;;;;;5095333;28;20172;-74
2023/02/28 10:14:18;;;;;;;0.93;0.93;;;1.50;88.90;;;;;;5094097;28;20258;-73
2023/02/28 10:16:47;;;;;;;0.40;0.40;;;1.50;88.60;;;;;;5095532;28;20629;-74
2023/02/28 10:19:20;;;;;;;2.15;2.05;;;1.50;88.70;;;;;;5095114;28;20193;-73
2023/02/28 10:22:13;;;;;;;0.50;0.50;;;1.50;88.60;;;;;;5094962;28;20168;-74
2023/02/28 10:24:52;;;;;;;0.40;0.40;;;1.60;89.60;;;;;;5095251;28;20494;-73
2023/02/28 10:27:23;;;;;;;0.50;0.50;;;1.90;89.50;;;;;;5094750;28;20640;-74
2023/02/28 10:29:57;;;;;;;0.77;0.77;;;2.10;87.00;;;;;;5094228;28;20215;-75
2023/02/28 10:32:24;;;;;;;6.32;6.05;;;2.20;86.50;;;;;;5094579;28;20172;-73
2023/02/28 10:35:13;;;;;;;1.85;1.35;;;2.30;85.50;;;;;;5094756;28;20574;-74
2023/02/28 10:37:41;;;;;;;0.77;0.77;;;2.20;84.10;;;;;;5093997;28;20259;-74
2023/02/28 10:40:24;;;;;;;0.60;0.60;;;2.30;84.30;;;;;;5094576;28;20515;-74
2023/02/28 10:42:58;;;;;;;1.45;1.08;;;1.80;84.90;;;;;;5094738;28;20167;-74
2023/02/28 10:45:25;;;;;;;1.95;1.85;;;1.70;85.70;;;;;;5094818;28;20484;-74
2023/02/28 10:47:57;;;;;;;0.40;0.40;;;1.60;85.30;;;;;;5094540;28;20671;-74
2023/02/28 10:50:41;;;;;;;0.60;0.60;;;1.40;86.60;;;;;;5094296;28;20164;-74
2023/02/28 10:53:10;;;;;;;0.60;0.60;;;1.60;86.80;;;;;;5094717;28;20543;-74
2023/02/28 10:55:36;;;;;;;0.30;0.30;;;1.90;87.30;;;;;;5094563;28;20179;-74
2023/02/28 10:58:02;;;;;;;0.52;0.52;;;2.00;85.00;;;;;;5094602;28;20636;-73
2023/02/28 11:00:34;;;;;;;0.40;0.40;;;2.00;84.30;;;;;;5094247;28;20556;-74
2023/02/28 11:03:00;;;;;;;0.40;0.40;;;1.70;84.90;;;;;;5094569;28;20689;-74
2023/02/28 11:05:26;;;;;;;1.10;1.10;;;1.80;85.40;;;;;;5092831;28;20250;-72
2023/02/28 11:07:59;;;;;;;1.80;1.80;;;1.70;86.40;;;;;;5093268;28;20333;-74
2023/02/28 11:10:30;;;;;;;1.63;1.02;;;1.90;86.90;;;;;;5094217;28;20176;-74
2023/02/28 11:12:57;;;;;;;0.50;0.50;;;1.90;85.50;;;;;;5094226;28;20525;-74
2023/02/28 11:15:29;;;;;;;0.40;0.40;;;2.10;86.20;;;;;;5094528;28;20617;-74
2023/02/28 11:18:00;;;;;;;2.05;0.93;;;2.10;85.40;;;;;;5093940;28;20188;-73
2023/02/28 11:20:29;;;;;;;2.45;2.35;;;2.00;85.30;;;;;;5093862;28;20172;-74
2023/02/28 11:22:57;;;;;;;0.90;0.90;;;2.00;86.20;;;;;;5094083;28;20540;-74
2023/02/28 11:25:24;;;;;;;0.60;0.60;;;2.20;85.40;;;;;;5093805;28;20215;-74
2023/02/28 11:27:52;;;;;;;0.45;0.45;;;2.20;84.10;;;;;;5094144;28;20209;-73
2023/02/28 11:30:33;;;;;;;1.83;1.73;;;2.30;84.40;;;;;;5093581;28;20169;-74
2023/02/28 11:33:00;;;;;;;1.40;1.40;;;2.50;84.10;;;;;;5093664;28;20211;-74
2023/02/28 11:35:36;;;;;;;2.88;2.58;;;2.40;83.90;;;;;;5094042;28;20172;-72
2023/02/28 11:38:02;;;;;;;0.95;0.95;;;2.40;84.00;;;;;;5092599;28;20690;-73
2023/02/28 11:40:51;;;;;;;2.67;2.00;;;2.60;84.70;;;;;;5093092;28;20243;-74
2023/02/28 11:43:29;;;;;;;0.47;0.47;;;2.70;83.70;;;;;;5093953;28;20407;-73
2023/02/28 11:46:13;;;;;;;1.17;1.08;;;2.70;83.50;;;;;;5094005;28;20700;-74
2023/02/28 11:49:02;;;;;;;0.30;0.30;;;2.60;84.20;;;;;;5092653;28;20204;-74
2023/02/28 11:51:35;;;;;;;0.40;0.40;;;3.10;99.90;;;;;;5093776;28;20204;-75
2023/02/28 11:54:28;;;;;;;1.98;1.88;;;2.80;87.90;;;;;;5092895;28;20243;-71
2023/02/28 11:56:59;;;;;;;1.00;1.00;;;2.90;89.80;;;;;;5094017;28;20171;-72
2023/02/28 12:00:04;;;;;;;0.40;0.40;;;2.60;86.10;;;;;;5093028;28;20185;-70
2023/02/28 12:02:36;;;;;;;1.08;1.08;;;2.50;84.00;;;;;;5082817;28;20180;-70
2023/02/28 12:05:12;;;;;;;1.25;1.25;;;2.50;85.90;;;;;;5093722;28;20171;-70
2023/02/28 12:07:52;;;;;;;1.88;1.77;;;2.80;85.80;;;;;;5093979;28;20562;-71
2023/02/28 12:10:36;;;;;;;1.73;1.42;;;3.10;84.50;;;;;;5093579;28;20203;-70
2023/02/28 12:13:16;;;;;;;1.80;1.48;;;3.30;82.40;;;;;;5093844;28;20172;-70
2023/02/28 12:16:22;;;;;;;3.28;3.05;;;3.20;82.10;;;;;;5094028;28;20220;-69
2023/02/28 12:18:54;;;;;;;0.60;0.60;;;3.30;81.30;;;;;;5093271;28;20211;-71
2023/02/28 12:21:58;;;;;;;3.58;3.38;;;3.20;81.10;;;;;;5093783;28;20169;-70
2023/02/28 12:24:42;;;;;;;1.20;1.20;;;3.20;80.10;;;;;;5069150;28;20188;-71
2023/02/28 12:27:13;;;;;;;6.93;2.70;;;3.10;80.00;;;;;;5093453;28;20173;-70
2023/02/28 12:30:00;;;;;;;0.73;0.73;;;3.00;80.50;;;;;;5092970;28;20634;-71
2023/02/28 12:32:41;;;;;;;0.40;0.40;;;3.00;81.20;;;;;;5093305;28;20576;-71
2023/02/28 12:35:14;;;;;;;1.63;1.58;;;3.10;80.30;;;;;;5093198;28;20165;-70
2023/02/28 12:38:01;;;;;;;1.55;1.45;;;2.90;80.20;;;;;;5093424;28;20245;-70
2023/02/28 12:40:44;;;;;;;2.80;2.70;;;2.80;80.90;;;;;;5092903;28;20172;-70
2023/02/28 12:43:13;;;;;;;1.00;1.00;;;3.00;81.60;;;;;;5093525;28;20172;-71
2023/02/28 12:45:48;;;;;;;1.25;1.17;;;3.30;81.00;;;;;;5093180;28;20226;-70
2023/02/28 12:48:37;;;;;;;2.58;2.38;;;3.50;80.40;;;;;;5093131;28;20313;-71
2023/02/28 12:51:04;;;;;;;0.85;0.85;;;3.80;80.60;;;;;;5093840;28;20169;-70
2023/02/28 12:53:59;;;;;;;0.80;0.80;;;4.10;80.80;;;;;;5097374;28;20164;-70
2023/02/28 12:56:27;;;;;;;1.55;1.55;;;4.20;77.60;;;;;;5097321;28;20169;-70
2023/02/28 12:59:15;;;;;;;1.17;1.17;;;3.80;77.30;;;;;;5095561;28;20201;-70
2023/02/28 13:02:03;;;;;;;1.27;1.17;;;3.20;78.10;;;;;;5096076;28;20601;-70
2023/02/28 13:04:55;;;;;;;1.95;1.50;;;3.00;80.40;;;;;;5096114;28;20244;-70
2023/02/28 13:07:31;;;;;;;5.47;5.00;;;3.00;82.40;;;;;;5096502;28;20665;-71
2023/02/28 13:09:59;;;;;;;0.60;0.60;;;3.20;82.40;;;;;;5094359;28;20572;-71